Time;durP1;ratioP1;P1;durP2;ratioP2;P2;SDS_P1;SDS_P2;PMS_P1;PMS_P2;Temp;Humidity;BMP_temperature;BMP_pressure;BME280_temperature;BME280_humidity;BME280_pressure;Samples;Min_cycle;Max_cycle;Signal;HPM_P1;HPM_P2
2022/06/18 00:00:13;;;;;;;16.70;14.90;;;;;;;17.04;87.93;93093.09;5049002;28;20212;-82
2022/06/18 00:02:42;;;;;;;14.27;13.30;;;;;;;17.30;86.73;93117.69;5048442;28;20210;-82
2022/06/18 00:05:09;;;;;;;15.43;14.23;;;;;;;17.51;85.85;93150.38;5049177;28;20189;-82
2022/06/18 00:07:43;;;;;;;15.83;14.27;;;;;;;17.50;85.50;93146.19;5047293;28;20229;-83
2022/06/18 00:10:15;;;;;;;15.00;13.80;;;;;;;17.57;85.92;93135.19;5048586;28;20307;-80
2022/06/18 00:15:29;;;;;;;14.97;13.83;;;;;;;17.23;87.47;93127.91;5048848;28;20192;-81
2022/06/18 00:17:55;;;;;;;15.07;13.67;;;;;;;17.23;87.30;93122.63;5048993;28;20178;-82
2022/06/18 00:20:23;;;;;;;15.07;13.97;;;;;;;17.41;84.85;93134.03;5048832;28;20185;-82
2022/06/18 00:22:55;;;;;;;14.37;13.37;;;;;;;17.23;85.65;93109.44;5048958;28;20216;-81
2022/06/18 00:25:23;;;;;;;14.90;13.73;;;;;;;17.37;85.66;93128.56;5048717;28;20232;-80
2022/06/18 00:27:49;;;;;;;14.97;13.57;;;;;;;17.05;85.44;93094.66;5049215;28;20198;-81
2022/06/18 00:30:18;;;;;;;14.60;13.33;;;;;;;17.27;85.20;93123.59;5031533;28;20197;-81
2022/06/18 00:32:44;;;;;;;14.10;13.10;;;;;;;17.07;85.70;93097.78;5047808;28;20293;-81
2022/06/18 00:35:11;;;;;;;15.33;13.93;;;;;;;17.17;84.81;93123.88;5049099;28;20220;-82
2022/06/18 00:37:37;;;;;;;14.43;13.07;;;;;;;17.13;85.81;93115.03;5030933;28;20253;-81
2022/06/18 00:40:13;;;;;;;14.87;13.57;;;;;;;16.84;84.59;93077.81;5032305;28;20273;-81
2022/06/18 00:42:39;;;;;;;13.47;12.57;;;;;;;17.10;85.70;93118.25;5027102;28;20230;-82
2022/06/18 00:45:06;;;;;;;14.63;13.50;;;;;;;16.85;85.20;93089.94;5029330;28;20197;-82
2022/06/18 00:47:47;;;;;;;14.30;13.40;;;;;;;16.95;85.12;93115.25;5028880;28;20230;-81
2022/06/18 00:50:21;;;;;;;14.00;13.10;;;;;;;17.03;85.62;93123.19;5029047;28;20831;-80
2022/06/18 00:52:50;;;;;;;13.73;12.73;;;;;;;16.95;85.45;93118.66;5027432;28;20222;-81
2022/06/18 00:55:31;;;;;;;14.17;13.03;;;;;;;17.12;85.04;93121.34;5029131;28;20194;-81
2022/06/18 00:58:03;;;;;;;14.60;13.60;;;;;;;16.97;84.88;93121.78;5029153;28;20322;-83
2022/06/18 01:00:35;;;;;;;13.80;12.53;;;;;;;16.91;84.85;93120.34;5027786;28;20266;-82
2022/06/18 01:03:01;;;;;;;14.77;13.57;;;;;;;16.63;83.97;93079.44;5029942;28;20178;-82
2022/06/18 01:05:38;;;;;;;14.00;12.93;;;;;;;16.71;84.73;93070.78;5032348;28;20186;-82
2022/06/18 01:08:17;;;;;;;13.50;12.67;;;;;;;16.75;83.93;93090.19;5030855;28;20174;-82
2022/06/18 01:10:50;;;;;;;13.17;12.27;;;;;;;16.86;84.87;93086.19;5031376;28;20230;-82
2022/06/18 01:13:20;;;;;;;13.33;12.33;;;;;;;16.60;84.18;93077.41;5032818;28;20210;-82
2022/06/18 01:15:47;;;;;;;13.77;12.67;;;;;;;16.85;84.91;93115.53;5032354;28;20232;-81
2022/06/18 01:18:13;;;;;;;13.37;12.27;;;;;;;16.73;83.77;93112.69;5032561;28;20190;-82
2022/06/18 01:20:46;;;;;;;13.40;12.30;;;;;;;16.73;83.32;93094.22;5031223;28;20278;-82
2022/06/18 01:23:30;;;;;;;12.97;12.03;;;;;;;16.77;84.10;93117.03;5031791;28;20175;-81
2022/06/18 01:25:56;;;;;;;12.07;10.93;;;;;;;16.80;83.63;93120.91;5032453;28;20247;-81
2022/06/18 01:28:22;;;;;;;12.80;12.03;;;;;;;16.62;82.82;93087.66;5031447;28;20206;-80
2022/06/18 01:30:47;;;;;;;12.67;11.60;;;;;;;16.83;83.35;93122.94;5032120;28;20227;-71
2022/06/18 01:33:13;;;;;;;12.63;11.73;;;;;;;16.78;82.47;93115.94;5029426;28;20241;-72
2022/06/18 01:35:42;;;;;;;13.47;12.47;;;;;;;16.73;81.74;93097.63;5030864;28;20234;-71
2022/06/18 01:38:09;;;;;;;12.83;11.93;;;;;;;16.65;81.75;93090.47;5031118;28;20178;-71
2022/06/18 01:40:37;;;;;;;11.90;11.10;;;;;;;16.84;80.83;93117.38;5031184;28;20233;-71
2022/06/18 01:43:05;;;;;;;12.60;11.37;;;;;;;16.76;82.26;93115.47;5031215;28;20183;-70
2022/06/18 01:45:35;;;;;;;11.73;11.03;;;;;;;16.75;81.54;93111.28;5030798;28;20187;-69
2022/06/18 01:48:19;;;;;;;12.27;11.27;;;;;;;16.66;82.74;93107.03;5031276;28;20206;-73
2022/06/18 01:50:54;;;;;;;12.57;11.67;;;;;;;16.64;83.17;93104.72;5030307;28;20238;-75
2022/06/18 01:53:24;;;;;;;11.57;10.87;;;;;;;16.43;84.19;93093.13;5031127;28;20214;-71
2022/06/18 01:56:06;;;;;;;12.47;11.43;;;;;;;16.41;84.44;93111.06;5031022;28;20290;-72
2022/06/18 01:58:38;;;;;;;12.07;11.20;;;;;;;16.31;84.13;93102.66;5031435;28;20186;-72
2022/06/18 02:01:09;;;;;;;12.00;11.10;;;;;;;16.26;85.13;93113.31;5029959;28;20242;-84
2022/06/18 02:03:36;;;;;;;11.43;10.13;;;;;;;16.02;85.07;93066.97;5030344;28;20295;-83
2022/06/18 02:06:03;;;;;;;12.30;11.50;;;;;;;15.88;86.23;93076.00;5030581;28;20221;-84
2022/06/18 02:08:29;;;;;;;12.60;11.70;;;;;;;15.96;86.14;93104.25;5031526;28;20195;-83
2022/06/18 02:10:58;;;;;;;11.40;10.57;;;;;;;15.94;86.43;93101.94;5031412;28;20225;-83
2022/06/18 02:13:31;;;;;;;11.13;10.53;;;;;;;16.00;86.33;93108.63;5029934;28;20269;-83
2022/06/18 02:15:58;;;;;;;12.33;11.47;;;;;;;15.81;85.74;93076.41;5029191;28;20234;-84
2022/06/18 02:18:25;;;;;;;13.17;12.17;;;;;;;15.06;85.18;92990.47;5031516;28;20250;-84
2022/06/18 02:20:54;;;;;;;11.73;10.73;;;;;;;15.73;85.96;93071.09;5029737;28;20245;-84
2022/06/18 02:23:22;;;;;;;11.80;11.00;;;;;;;15.90;86.49;93100.19;5029903;28;20186;-84
2022/06/18 02:25:48;;;;;;;12.57;11.63;;;;;;;15.82;84.51;93067.47;5030298;28;20226;-85
2022/06/18 02:28:30;;;;;;;11.87;11.13;;;;;;;15.66;86.01;93060.19;5030380;28;20178;-84
2022/06/18 02:30:59;;;;;;;11.50;10.70;;;;;;;15.84;85.29;93086.34;5030065;28;20246;-84
2022/06/18 02:33:45;;;;;;;13.10;11.83;;;;;;;15.84;84.71;93104.03;5030347;28;20222;-84
2022/06/18 02:36:16;;;;;;;11.90;11.10;;;;;;;15.90;83.83;93106.25;5029228;28;20253;-84
2022/06/18 02:38:43;;;;;;;11.47;10.67;;;;;;;15.84;84.32;93090.84;5030877;28;20191;-84
2022/06/18 02:41:10;;;;;;;12.10;11.27;;;;;;;15.94;83.28;93107.19;5029377;28;20374;-85
2022/06/18 02:43:36;;;;;;;11.63;10.83;;;;;;;16.05;83.64;93111.16;5028867;28;20202;-86
2022/06/18 02:46:02;;;;;;;12.00;11.00;;;;;;;16.02;83.30;93108.34;5030935;28;20226;-84
2022/06/18 02:48:31;;;;;;;12.00;11.20;;;;;;;16.04;83.50;93114.09;5029898;28;20209;-84
2022/06/18 02:50:58;;;;;;;12.03;11.23;;;;;;;16.05;83.46;93113.00;5029717;28;20222;-84
2022/06/18 02:53:24;;;;;;;11.20;10.50;;;;;;;15.96;83.07;93088.47;5030215;28;20225;-84
2022/06/18 02:55:54;;;;;;;12.07;11.27;;;;;;;15.54;83.16;93034.41;5030034;28;20234;-85
2022/06/18 02:58:30;;;;;;;11.63;10.73;;;;;;;16.16;82.23;93114.31;5030521;28;20187;-85
2022/06/18 03:01:08;;;;;;;12.03;11.13;;;;;;;16.22;81.86;93115.75;5029044;28;20304;-84
2022/06/18 03:03:38;;;;;;;11.50;10.67;;;;;;;16.30;81.56;93106.34;5028498;28;20198;-85
2022/06/18 03:06:05;;;;;;;11.80;10.90;;;;;;;16.28;80.84;93106.66;5029203;28;20303;-83
2022/06/18 03:08:31;;;;;;;11.57;10.77;;;;;;;16.09;79.75;93074.47;5031215;28;20202;-84
2022/06/18 03:13:43;;;;;;;10.40;9.80;;;;;;;16.94;77.22;93061.72;5029080;28;20225;-84
2022/06/18 03:16:12;;;;;;;10.73;10.03;;;;;;;18.23;70.93;93107.53;5028704;28;20227;-85
2022/06/18 03:18:39;;;;;;;11.60;10.83;;;;;;;19.13;67.91;93084.13;5029418;28;20191;-84
2022/06/18 03:21:15;;;;;;;12.27;11.50;;;;;;;20.08;65.13;93108.16;5026092;28;20231;-84
2022/06/18 03:23:43;;;;;;;11.23;10.60;;;;;;;20.51;63.46;93116.56;5025292;28;20249;-84
2022/06/18 03:26:08;;;;;;;12.63;11.63;;;;;;;20.27;63.89;93101.31;5027019;28;20219;-84
2022/06/18 03:28:34;;;;;;;11.57;10.77;;;;;;;20.17;63.49;93104.38;5027533;28;20183;-84
2022/06/18 03:30:59;;;;;;;10.50;9.90;;;;;;;20.51;62.46;93108.59;5029153;28;20220;-84
2022/06/18 03:33:25;;;;;;;10.43;9.67;;;;;;;19.76;62.65;93080.50;5029050;28;20212;-80
2022/06/18 03:35:52;;;;;;;10.87;10.13;;;;;;;20.60;62.14;93102.09;5025311;28;20228;-81
2022/06/18 03:38:19;;;;;;;12.90;11.97;;;;;;;20.80;59.69;93105.78;5023886;28;20180;-81
2022/06/18 03:40:45;;;;;;;9.67;9.07;;;;;;;20.41;60.47;93131.00;5028624;28;20233;-81
2022/06/18 03:43:12;;;;;;;10.87;10.00;;;;;;;21.45;57.85;93126.13;5028247;28;20174;-80
2022/06/18 03:45:41;;;;;;;9.60;9.07;;;;;;;20.36;60.59;93119.81;5029085;28;20230;-81
2022/06/18 03:48:09;;;;;;;10.75;10.05;;;;;;;19.76;64.51;93133.50;5029083;28;20228;-81
2022/06/18 03:50:34;;;;;;;12.10;11.10;;;;;;;19.77;64.59;93139.56;5027505;28;20200;-80
2022/06/18 03:53:00;;;;;;;11.73;11.00;;;;;;;19.56;65.55;93142.19;5029139;28;20233;-77
2022/06/18 03:55:26;;;;;;;11.37;10.57;;;;;;;19.94;65.45;93137.56;5029390;28;20218;-73
2022/06/18 03:57:51;;;;;;;11.07;10.37;;;;;;;20.18;64.78;93126.34;5027804;28;20284;-72
2022/06/18 04:00:20;;;;;;;10.87;10.07;;;;;;;19.84;63.58;93134.53;5028861;28;20245;-72
2022/06/18 04:02:46;;;;;;;11.57;10.75;;;;;;;19.65;65.63;93137.63;5028741;28;20206;-72
2022/06/18 04:05:11;;;;;;;11.23;10.43;;;;;;;19.71;65.31;93135.53;5028816;28;20193;-72
2022/06/18 04:07:38;;;;;;;10.53;9.93;;;;;;;19.49;65.82;93133.97;5028426;28;20228;-71
2022/06/18 04:10:06;;;;;;;11.03;10.20;;;;;;;19.84;65.35;93130.03;5028157;28;20185;-72
2022/06/18 04:12:32;;;;;;;12.03;10.87;;;;;;;19.63;64.12;93133.72;5028556;28;20239;-73
2022/06/18 04:14:58;;;;;;;13.37;10.47;;;;;;;19.57;64.57;93133.16;5028754;28;20240;-73
2022/06/18 04:17:23;;;;;;;11.07;10.37;;;;;;;19.03;65.03;93104.88;5028795;28;20236;-73
2022/06/18 04:19:48;;;;;;;10.50;9.90;;;;;;;18.77;67.64;93120.84;5029009;28;20278;-73
2022/06/18 04:22:14;;;;;;;11.60;10.80;;;;;;;18.58;68.52;93135.53;5027952;28;20241;-72
2022/06/18 04:24:39;;;;;;;10.70;10.00;;;;;;;18.23;69.98;93133.97;5029192;28;20232;-73
2022/06/18 04:27:06;;;;;;;10.70;10.03;;;;;;;18.38;70.63;93131.66;5028730;28;20235;-73
2022/06/18 04:29:32;;;;;;;11.17;10.23;;;;;;;18.15;70.42;93121.56;5027868;28;20246;-82
2022/06/18 04:31:59;;;;;;;10.47;9.77;;;;;;;18.50;71.10;93129.16;5027353;28;20231;-79
2022/06/18 04:34:25;;;;;;;11.67;10.80;;;;;;;19.85;67.67;93151.97;5026189;28;20200;-76
2022/06/18 04:36:50;;;;;;;11.17;10.40;;;;;;;22.45;57.63;93152.69;5029458;28;20227;-79
2022/06/18 04:39:16;;;;;;;11.40;10.25;;;;;;;22.84;55.96;93144.69;5031417;28;20204;-80
2022/06/18 04:41:41;;;;;;;10.18;9.55;;;;;;;21.68;58.74;93132.56;5031159;28;20225;-79
2022/06/18 04:44:06;;;;;;;12.03;11.23;;;;;;;21.38;60.16;93155.13;5031703;28;20204;-80
2022/06/18 04:46:32;;;;;;;11.45;10.55;;;;;;;21.01;61.50;93153.53;5030909;28;20220;-82
2022/06/18 04:48:58;;;;;;;11.35;10.27;;;;;;;20.19;63.40;93134.00;5031311;28;20277;-78
2022/06/18 04:51:24;;;;;;;11.52;10.73;;;;;;;19.43;65.38;93134.47;5030930;28;20237;-82
2022/06/18 04:53:49;;;;;;;10.40;9.73;;;;;;;19.58;66.95;93124.09;5031755;28;20225;-78
2022/06/18 04:56:15;;;;;;;12.10;11.20;;;;;;;20.13;64.26;93147.72;5030064;28;20235;-80
2022/06/18 04:58:40;;;;;;;10.27;9.53;;;;;;;19.88;62.96;93148.69;5030847;28;20201;-79
2022/06/18 05:01:06;;;;;;;10.52;9.93;;;;;;;20.41;63.32;93146.91;5030980;28;20229;-76
2022/06/18 05:03:32;;;;;;;10.53;9.93;;;;;;;21.22;61.80;93155.00;5032014;28;20265;-76
2022/06/18 05:05:58;;;;;;;9.88;9.30;;;;;;;22.64;54.73;93147.56;5031281;28;20455;-77
2022/06/18 05:08:24;;;;;;;9.18;8.68;;;;;;;23.77;51.72;93158.09;5030942;28;20187;-75
2022/06/18 05:10:50;;;;;;;9.80;8.90;;;;;;;22.93;54.60;93152.50;5030272;28;20318;-79
2022/06/18 05:13:15;;;;;;;9.73;9.13;;;;;;;24.08;51.29;93151.19;5031035;28;20210;-79
2022/06/18 05:15:42;;;;;;;9.38;8.68;;;;;;;26.45;44.43;93163.81;5030789;28;20241;-80
2022/06/18 05:18:13;;;;;;;9.93;9.23;;;;;;;29.09;39.30;93178.41;5031990;28;20229;-79
2022/06/18 05:20:38;;;;;;;8.45;7.95;;;;;;;30.56;35.40;93188.53;5030567;28;20239;-78
2022/06/18 05:23:04;;;;;;;9.07;8.57;;;;;;;29.95;35.46;93186.25;5030320;28;20179;-75
2022/06/18 05:25:29;;;;;;;8.10;7.60;;;;;;;29.00;37.42;93177.97;5030371;28;20230;-78
2022/06/18 05:27:55;;;;;;;8.32;7.93;;;;;;;26.73;42.22;93167.66;5031789;28;20191;-76
2022/06/18 05:30:27;;;;;;;10.48;9.35;;;;;;;24.77;47.55;93167.13;5031433;28;20195;-75
2022/06/18 05:32:53;;;;;;;8.70;8.20;;;;;;;24.69;47.83;93170.78;5032769;28;20273;-84
2022/06/18 05:35:18;;;;;;;8.48;8.02;;;;;;;25.52;46.93;93173.50;5031520;28;20205;-81
2022/06/18 05:37:44;;;;;;;8.65;8.15;;;;;;;28.72;38.91;93163.66;5031999;28;20198;-78
2022/06/18 05:40:12;;;;;;;9.65;8.95;;;;;;;30.97;34.46;93168.03;5031064;28;20187;-80
2022/06/18 05:42:37;;;;;;;8.90;8.27;;;;;;;30.29;35.92;93190.13;5030915;28;20258;-78
2022/06/18 05:45:04;;;;;;;8.23;7.70;;;;;;;32.73;32.21;93202.69;5031560;28;20190;-78
2022/06/18 05:47:31;;;;;;;8.80;8.10;;;;;;;33.66;30.02;93198.53;5030799;28;20273;-79
2022/06/18 05:49:57;;;;;;;8.48;7.95;;;;;;;32.98;30.58;93201.69;5030956;28;20216;-77
2022/06/18 05:52:23;;;;;;;8.20;7.60;;;;;;;34.67;28.04;93206.25;5030923;28;20302;-77
2022/06/18 05:54:51;;;;;;;8.10;7.60;;;;;;;36.20;25.98;93191.84;5030794;28;20187;-76
2022/06/18 05:57:17;;;;;;;7.68;7.18;;;;;;;35.22;26.97;93219.97;5031273;28;20245;-76
2022/06/18 05:59:43;;;;;;;8.98;7.97;;;;;;;33.09;29.30;93191.50;5032093;28;20187;-77
2022/06/18 06:02:13;;;;;;;7.85;7.18;;;;;;;34.91;27.07;93226.00;5031331;28;20250;-77
2022/06/18 06:04:39;;;;;;;7.95;7.38;;;;;;;34.41;28.68;93201.66;5031918;28;20189;-77
2022/06/18 06:07:14;;;;;;;7.68;7.10;;;;;;;34.61;27.79;93213.31;5031524;28;20257;-74
2022/06/18 06:12:23;;;;;;;8.20;7.63;;;;;;;35.96;25.69;93218.44;5030629;28;20225;-76
2022/06/18 06:14:48;;;;;;;8.35;7.68;;;;;;;34.53;27.65;93206.50;5030709;28;20194;-76
2022/06/18 06:17:19;;;;;;;7.85;7.35;;;;;;;34.78;27.75;93216.91;5031013;28;20246;-77
2022/06/18 06:19:44;;;;;;;7.82;7.32;;;;;;;34.67;27.91;93206.25;5030859;28;20182;-77
2022/06/18 06:22:10;;;;;;;8.52;7.80;;;;;;;34.84;27.73;93205.16;5030978;28;20254;-77
2022/06/18 06:24:35;;;;;;;6.95;6.55;;;;;;;36.25;26.25;93211.13;5031515;28;20245;-80
2022/06/18 06:27:01;;;;;;;6.97;6.57;;;;;;;36.52;25.43;93216.34;5030812;28;20215;-79
2022/06/18 06:29:26;;;;;;;7.00;6.68;;;;;;;34.94;26.68;93215.09;5030973;28;20186;-79
2022/06/18 06:31:51;;;;;;;7.00;6.60;;;;;;;35.29;25.93;93189.94;5030832;28;20218;-79
2022/06/18 06:34:17;;;;;;;7.40;7.00;;;;;;;36.65;24.67;93219.91;5031139;28;20215;-79
2022/06/18 06:36:42;;;;;;;6.43;6.13;;;;;;;35.76;25.55;93203.31;5030739;28;20250;-79
2022/06/18 06:39:07;;;;;;;7.95;7.30;;;;;;;36.23;24.27;93210.81;5031363;28;20214;-79
2022/06/18 06:41:33;;;;;;;7.47;6.93;;;;;;;35.94;25.05;93192.88;5030640;28;20231;-79
2022/06/18 06:43:59;;;;;;;8.10;7.60;;;;;;;34.66;26.67;93207.44;5030563;28;20186;-80
2022/06/18 06:46:24;;;;;;;8.07;7.57;;;;;;;33.88;27.49;93215.22;5030153;28;20241;-80
2022/06/18 06:48:50;;;;;;;7.82;7.32;;;;;;;32.54;29.26;93194.41;5031290;28;20187;-80
2022/06/18 06:51:29;;;;;;;8.70;8.05;;;;;;;31.70;30.79;93195.03;5029762;28;20234;-76
2022/06/18 06:53:55;;;;;;;8.35;7.85;;;;;;;28.80;35.30;93176.72;5031078;28;20195;-77
2022/06/18 06:59:07;;;;;;;9.38;8.68;;;;;;;23.89;49.06;93167.09;5030938;28;20261;-76
2022/06/18 07:01:34;;;;;;;10.60;9.90;;;;;;;24.51;48.02;93169.63;5029115;28;20218;-77
2022/06/18 07:04:01;;;;;;;9.43;8.50;;;;;;;24.03;49.04;93183.47;5030044;28;20183;-76
2022/06/18 07:06:26;;;;;;;10.63;9.88;;;;;;;23.39;52.28;93147.25;5028445;28;20217;-76
2022/06/18 07:08:52;;;;;;;10.32;9.63;;;;;;;23.11;52.62;93162.53;5030267;28;20254;-76
2022/06/18 07:11:18;;;;;;;10.52;9.82;;;;;;;23.08;52.91;93168.53;5030236;28;20223;-77
2022/06/18 07:13:43;;;;;;;10.05;9.45;;;;;;;23.14;51.56;93161.06;5029588;28;20213;-76
2022/06/18 07:16:11;;;;;;;10.68;9.95;;;;;;;23.51;49.15;93175.72;5029589;28;20242;-75
2022/06/18 07:18:36;;;;;;;10.57;9.68;;;;;;;23.45;49.71;93169.91;5029593;28;20218;-75
2022/06/18 07:21:05;;;;;;;10.57;9.88;;;;;;;23.74;48.90;93177.44;5029934;28;20253;-76
2022/06/18 07:23:31;;;;;;;9.50;8.88;;;;;;;23.44;49.91;93155.00;5030609;28;20207;-73
2022/06/18 07:25:56;;;;;;;9.73;9.15;;;;;;;23.04;51.33;93167.66;5029892;28;20237;-72
2022/06/18 07:28:23;;;;;;;10.23;9.43;;;;;;;23.33;48.26;93182.53;5030721;28;20190;-74
2022/06/18 07:30:48;;;;;;;10.63;9.93;;;;;;;23.19;50.13;93163.47;5027735;28;20284;-78
2022/06/18 07:33:18;;;;;;;10.55;9.70;;;;;;;22.75;51.26;93176.03;5028670;28;20232;-74
2022/06/18 07:35:44;;;;;;;10.60;9.70;;;;;;;22.71;52.27;93159.16;5028906;28;20252;-74
2022/06/18 07:38:09;;;;;;;10.68;10.00;;;;;;;22.83;49.05;93143.16;5029027;28;20186;-78
2022/06/18 07:40:41;;;;;;;10.18;9.45;;;;;;;22.58;52.88;93178.19;5029804;28;20244;-81
2022/06/18 07:43:08;;;;;;;9.43;8.82;;;;;;;22.52;49.62;93183.00;5027273;28;20180;-77
2022/06/18 07:45:34;;;;;;;10.73;9.93;;;;;;;21.87;50.49;93183.28;5029345;28;20193;-73
2022/06/18 07:47:59;;;;;;;10.43;9.82;;;;;;;22.19;51.07;93147.78;5028690;28;20194;-76
2022/06/18 07:50:25;;;;;;;10.00;9.38;;;;;;;22.89;46.68;93160.44;5028669;28;20169;-77
2022/06/18 07:52:51;;;;;;;11.82;10.77;;;;;;;22.82;49.18;93162.13;5029206;28;20300;-77
2022/06/18 07:55:21;;;;;;;10.27;9.57;;;;;;;22.66;49.91;93171.97;5028518;28;20235;-77
2022/06/18 07:57:46;;;;;;;10.85;9.70;;;;;;;22.02;49.95;93172.00;5029777;28;20205;-77
2022/06/18 08:00:16;;;;;;;10.48;9.77;;;;;;;22.08;53.27;93173.31;5030143;28;20205;-77
2022/06/18 08:02:42;;;;;;;10.35;9.75;;;;;;;22.67;49.33;93152.19;5028788;28;20217;-77
2022/06/18 08:05:10;;;;;;;10.65;9.95;;;;;;;23.18;48.87;93168.03;5029792;28;20249;-75
2022/06/18 08:07:36;;;;;;;10.48;9.57;;;;;;;23.28;47.82;93172.91;5028618;28;20213;-75
2022/06/18 08:10:03;;;;;;;9.75;9.15;;;;;;;23.34;49.06;93176.84;5030145;28;20189;-76
2022/06/18 08:12:29;;;;;;;9.73;9.15;;;;;;;23.39;49.56;93167.81;5028807;28;20233;-76
2022/06/18 08:14:55;;;;;;;9.63;9.00;;;;;;;23.67;46.34;93157.84;5029556;28;20192;-75
2022/06/18 08:17:20;;;;;;;9.40;8.90;;;;;;;23.08;50.07;93178.41;5028040;28;20302;-75
2022/06/18 08:19:45;;;;;;;9.88;9.27;;;;;;;23.32;47.14;93167.63;5029658;28;20177;-75
2022/06/18 08:22:11;;;;;;;10.52;9.73;;;;;;;23.66;46.16;93181.06;5028743;28;20233;-75
2022/06/18 08:24:36;;;;;;;9.98;9.25;;;;;;;23.39;45.28;93160.59;5029387;28;20233;-77
2022/06/18 08:27:02;;;;;;;10.98;10.07;;;;;;;22.89;48.77;93165.75;5028666;28;20237;-77
2022/06/18 08:29:28;;;;;;;9.77;9.13;;;;;;;22.69;49.17;93171.28;5028924;28;20208;-77
2022/06/18 08:31:53;;;;;;;10.30;9.70;;;;;;;23.06;47.69;93164.66;5029044;28;20228;-77
2022/06/18 08:34:18;;;;;;;10.55;9.85;;;;;;;23.67;49.04;93150.59;5028432;28;20215;-77
2022/06/18 08:36:45;;;;;;;9.35;8.85;;;;;;;24.75;45.67;93180.84;5029273;28;20828;-75
2022/06/18 08:39:10;;;;;;;10.50;9.65;;;;;;;24.41;45.03;93186.19;5028929;28;20193;-75
2022/06/18 08:41:50;;;;;;;9.43;8.90;;;;;;;23.69;46.58;93179.59;5028913;28;20238;-75
2022/06/18 08:44:40;;;;;;;10.23;9.52;;;;;;;23.47;47.31;93170.31;5027562;28;20188;-74
2022/06/18 08:47:22;;;;;;;10.23;9.60;;;;;;;23.10;47.88;93133.53;5027581;28;20268;-75
2022/06/18 08:49:47;;;;;;;10.43;9.80;;;;;;;23.97;47.54;93174.19;5028569;28;20248;-75
2022/06/18 08:52:31;;;;;;;10.30;9.60;;;;;;;23.39;47.64;93179.22;5027556;28;20225;-75
2022/06/18 08:55:24;;;;;;;11.05;10.15;;;;;;;23.19;49.45;93174.13;5028218;28;20192;-75
2022/06/18 08:58:08;;;;;;;10.00;9.38;;;;;;;22.88;49.04;93176.75;5027681;28;20205;-75
2022/06/18 09:00:57;;;;;;;10.38;9.68;;;;;;;22.88;48.80;93171.41;5027742;28;20197;-75
2022/06/18 09:03:33;;;;;;;9.63;8.82;;;;;;;23.14;49.01;93172.50;5028650;28;20216;-76
2022/06/18 09:06:07;;;;;;;9.68;9.18;;;;;;;23.24;49.99;93166.66;5028343;28;20226;-75
2022/06/18 09:08:42;;;;;;;9.90;9.20;;;;;;;23.35;49.14;93170.41;5027690;28;20256;-76
2022/06/18 09:11:25;;;;;;;9.88;9.30;;;;;;;23.12;49.71;93161.41;5027439;28;20258;-76
2022/06/18 09:14:07;;;;;;;9.43;8.93;;;;;;;23.84;48.21;93159.34;5028985;28;20215;-77
2022/06/18 09:16:52;;;;;;;10.27;9.63;;;;;;;23.09;47.51;93134.66;5028303;28;20228;-76
2022/06/18 09:19:20;;;;;;;10.50;9.80;;;;;;;23.36;47.60;93118.63;5028324;28;20173;-76
2022/06/18 09:21:52;;;;;;;9.93;9.13;;;;;;;23.83;48.11;93149.81;5029110;28;20231;-76
2022/06/18 09:24:27;;;;;;;9.27;8.77;;;;;;;24.06;47.21;93142.75;5031103;28;20240;-77
2022/06/18 09:26:59;;;;;;;9.63;9.13;;;;;;;23.06;48.99;93122.81;5030859;28;20299;-77
2022/06/18 09:29:35;;;;;;;10.18;9.57;;;;;;;23.41;46.69;93142.34;5032270;28;20194;-77
2022/06/18 09:32:06;;;;;;;9.48;8.98;;;;;;;23.50;47.55;93147.53;5029881;28;20228;-76
2022/06/18 09:34:46;;;;;;;10.13;9.43;;;;;;;23.49;50.31;93130.75;5032109;28;21034;-77
2022/06/18 09:37:22;;;;;;;10.18;9.57;;;;;;;23.36;49.59;93153.28;5030527;28;20235;-75
2022/06/18 09:39:53;;;;;;;9.75;9.00;;;;;;;23.04;50.03;93151.69;5032590;28;20203;-77
2022/06/18 09:42:33;;;;;;;11.45;10.50;;;;;;;23.11;50.75;93154.53;5030807;28;20237;-77
2022/06/18 09:45:10;;;;;;;9.90;9.07;;;;;;;22.96;47.74;93138.50;5031524;28;20245;-76
2022/06/18 09:47:47;;;;;;;9.02;8.52;;;;;;;23.07;45.42;93145.66;5031613;28;20232;-77
2022/06/18 09:50:13;;;;;;;9.52;9.02;;;;;;;23.52;43.87;93167.38;5032201;28;20198;-76
2022/06/18 09:52:41;;;;;;;9.32;8.82;;;;;;;23.75;45.59;93148.88;5031484;28;20757;-76
2022/06/18 09:55:20;;;;;;;9.88;9.27;;;;;;;23.78;45.18;93169.53;5031950;28;20186;-76
2022/06/18 09:57:52;;;;;;;9.05;8.43;;;;;;;23.31;45.48;93144.78;5030986;28;20198;-77
2022/06/18 10:00:23;;;;;;;9.90;9.20;;;;;;;24.01;45.17;93167.81;5031866;28;20261;-77
2022/06/18 10:03:01;;;;;;;9.60;9.00;;;;;;;23.83;46.78;93171.16;5031642;28;20180;-77
2022/06/18 10:08:35;;;;;;;9.02;8.48;;;;;;;24.15;46.90;93164.66;5031814;28;20232;-77
2022/06/18 10:11:07;;;;;;;10.15;9.52;;;;;;;24.71;45.67;93142.59;5029715;28;20218;-77
2022/06/18 10:13:41;;;;;;;9.85;9.25;;;;;;;24.74;46.49;93157.94;5031062;28;20224;-77
2022/06/18 10:16:17;;;;;;;9.85;9.25;;;;;;;24.35;44.99;93140.31;5031250;28;20339;-77
2022/06/18 10:19:05;;;;;;;10.07;9.35;;;;;;;24.30;45.11;93150.47;5031856;28;20261;-77
2022/06/18 10:21:57;;;;;;;10.50;9.80;;;;;;;24.27;44.82;93141.28;5031275;28;20279;-77
2022/06/18 10:24:36;;;;;;;9.75;9.15;;;;;;;24.27;45.24;93146.63;5030018;28;20224;-78
2022/06/18 10:27:08;;;;;;;10.73;10.00;;;;;;;23.39;48.72;93147.25;5029767;28;20240;-78
2022/06/18 10:29:54;;;;;;;9.90;9.27;;;;;;;22.90;48.68;93145.19;5031284;28;20201;-78
2022/06/18 10:32:48;;;;;;;9.73;9.13;;;;;;;23.89;46.96;93148.44;5030642;28;20260;-78
2022/06/18 10:36:08;;;;;;;9.98;8.93;;;;;;;23.91;46.58;93135.53;5025272;28;20197;-79
2022/06/18 10:38:53;;;;;;;9.68;9.07;;;;;;;24.02;47.46;93128.53;4963121;28;20225;-78
2022/06/18 10:41:35;;;;;;;10.45;9.75;;;;;;;24.42;45.66;93145.03;5030371;28;20232;-78
2022/06/18 10:44:27;;;;;;;10.50;9.60;;;;;;;24.41;45.33;93124.78;5031051;28;20184;-78
2022/06/18 10:47:04;;;;;;;10.70;10.10;;;;;;;24.55;45.97;93122.41;5005521;28;20289;-78
2022/06/18 10:49:31;;;;;;;10.95;10.05;;;;;;;23.71;49.92;93130.13;5031005;28;20213;-78
2022/06/18 10:51:57;;;;;;;10.25;9.40;;;;;;;23.10;52.06;93134.31;5013069;28;20217;-78
2022/06/18 10:54:35;;;;;;;10.05;9.27;;;;;;;23.59;50.29;93135.56;5030905;28;20235;-78
2022/06/18 10:57:03;;;;;;;10.05;9.48;;;;;;;23.15;51.26;93135.97;5043953;28;20254;-78
2022/06/18 10:59:29;;;;;;;10.02;9.43;;;;;;;23.19;51.03;93134.19;5034079;28;20180;-78
2022/06/18 11:01:54;;;;;;;10.18;9.48;;;;;;;22.71;53.17;93121.88;5050172;28;20246;-78
2022/06/18 11:04:22;;;;;;;11.40;10.18;;;;;;;22.16;57.96;93143.16;5051104;28;20200;-77
2022/06/18 11:06:49;;;;;;;10.23;9.52;;;;;;;21.54;60.52;93137.44;5050006;28;20228;-77
2022/06/18 11:09:25;;;;;;;11.10;10.30;;;;;;;21.83;60.04;93155.84;5049393;28;20191;-77
2022/06/18 11:11:57;;;;;;;10.98;10.27;;;;;;;21.85;60.67;93154.38;5049616;28;20242;-78
2022/06/18 11:14:23;;;;;;;10.27;9.65;;;;;;;21.19;63.78;93133.66;5050151;28;20239;-77
2022/06/18 11:16:54;;;;;;;11.38;10.63;;;;;;;21.31;66.28;93160.25;5036834;28;20867;-78
2022/06/18 11:19:48;;;;;;;11.18;10.48;;;;;;;21.14;67.50;93155.09;5029072;28;20221;-77
2022/06/18 11:22:29;;;;;;;11.77;10.82;;;;;;;20.22;69.34;93140.50;5045903;28;20236;-78
2022/06/18 11:25:01;;;;;;;11.27;10.57;;;;;;;18.13;75.53;93150.16;5048096;28;20227;-77
2022/06/18 11:27:34;;;;;;;11.53;10.77;;;;;;;18.24;75.75;93173.31;5048666;28;20240;-78
2022/06/18 11:30:07;;;;;;;10.70;9.90;;;;;;;17.84;77.17;93176.41;5050027;28;20164;-77
2022/06/18 11:32:44;;;;;;;11.30;10.50;;;;;;;17.59;80.57;93186.59;5029487;28;20254;-77
2022/06/18 11:35:31;;;;;;;11.23;10.43;;;;;;;17.71;85.13;93190.50;5029524;28;20262;-78
2022/06/18 11:38:06;;;;;;;11.70;10.90;;;;;;;17.94;85.03;93186.66;5049831;28;20257;-76
2022/06/18 11:40:32;;;;;;;14.23;12.83;;;;;;;17.95;82.89;93122.16;5049433;28;20254;-77
2022/06/18 11:43:20;;;;;;;12.00;11.10;;;;;;;18.65;80.01;93183.41;5049001;28;20208;-77
2022/06/18 11:45:52;;;;;;;12.83;11.73;;;;;;;18.94;81.97;93180.88;5036880;28;20237;-77
2022/06/18 11:48:40;;;;;;;12.00;11.03;;;;;;;18.79;83.54;93181.38;5047988;28;20201;-77
2022/06/18 11:51:22;;;;;;;12.37;11.57;;;;;;;18.95;83.01;93177.13;5032456;28;20226;-77